createdAt,value
2019-03-29T00:01:09.537Z,8.60
2019-03-29T00:03:37.638Z,8.50
2019-03-29T00:06:06.407Z,8.40
2019-03-29T00:08:35.415Z,8.40
2019-03-29T00:11:04.102Z,8.40
2019-03-29T00:13:32.903Z,8.40
2019-03-29T00:16:00.944Z,8.40
2019-03-29T00:18:28.963Z,8.30
2019-03-29T00:20:57.003Z,8.40
2019-03-29T00:23:25.044Z,8.40
2019-03-29T00:25:53.845Z,8.20
2019-03-29T00:28:21.879Z,8.20
2019-03-29T00:30:49.996Z,8.10
2019-03-29T00:33:18.121Z,8.00
2019-03-29T00:35:46.139Z,8.00
2019-03-29T00:38:14.176Z,8.10
2019-03-29T00:40:42.207Z,8.10
2019-03-29T00:43:10.241Z,8.20
2019-03-29T00:45:38.269Z,8.20
2019-03-29T00:48:06.337Z,8.10
2019-03-29T00:50:34.511Z,8.10
2019-03-29T00:53:02.526Z,8.10
2019-03-29T00:55:30.602Z,8.00
2019-03-29T00:57:59.394Z,8.00
2019-03-29T01:00:27.410Z,8.00
2019-03-29T01:02:55.455Z,7.90
2019-03-29T01:05:23.491Z,7.80
2019-03-29T01:07:52.278Z,7.80
2019-03-29T01:10:21.074Z,7.90
2019-03-29T01:12:49.103Z,7.90
2019-03-29T01:15:17.222Z,7.90
2019-03-29T01:17:45.930Z,7.80
2019-03-29T01:20:13.355Z,7.70
2019-03-29T01:22:41.430Z,7.80
2019-03-29T01:25:10.210Z,7.60
2019-03-29T01:27:38.262Z,7.50
2019-03-29T01:30:07.054Z,7.50
2019-03-29T01:32:35.955Z,7.40
2019-03-29T01:35:04.762Z,7.40
2019-03-29T01:37:32.790Z,7.30
2019-03-29T01:40:01.602Z,7.30
2019-03-29T01:42:29.675Z,7.30
2019-03-29T01:44:57.720Z,7.30
2019-03-29T01:47:26.536Z,7.30
2019-03-29T01:49:54.603Z,7.30
2019-03-29T01:52:22.645Z,7.30
2019-03-29T01:54:50.670Z,7.20
2019-03-29T01:57:18.707Z,7.20
2019-03-29T01:59:46.798Z,7.20
2019-03-29T02:02:14.834Z,7.10
2019-03-29T02:04:43.642Z,7.10
2019-03-29T02:07:12.055Z,7.10
2019-03-29T02:09:39.786Z,7.10
2019-03-29T02:12:08.583Z,7.10
2019-03-29T02:14:36.630Z,7.10
2019-03-29T02:17:04.646Z,7.20
2019-03-29T02:19:32.698Z,7.20
2019-03-29T02:22:00.759Z,7.10
2019-03-29T02:24:28.796Z,7.00
2019-03-29T02:26:57.600Z,7.10
2019-03-29T02:29:25.694Z,7.10
2019-03-29T02:31:56.359Z,6.80
2019-03-29T02:34:22.540Z,6.80
2019-03-29T02:36:50.613Z,6.90
2019-03-29T02:39:18.679Z,6.90
2019-03-29T02:41:46.951Z,7.00
2019-03-29T02:44:15.586Z,6.70
2019-03-29T02:46:43.604Z,6.70
2019-03-29T02:49:12.691Z,6.80
2019-03-29T02:51:39.747Z,6.60
2019-03-29T02:54:08.519Z,6.70
2019-03-29T02:56:36.567Z,6.70
2019-03-29T02:59:04.619Z,6.80
2019-03-29T03:01:32.744Z,6.80
2019-03-29T03:04:00.792Z,6.90
2019-03-29T03:06:29.852Z,6.80
2019-03-29T03:09:12.292Z,6.80
2019-03-29T03:11:26.560Z,6.70
2019-03-29T03:13:54.636Z,6.70
2019-03-29T03:16:22.692Z,6.60
2019-03-29T03:18:50.761Z,6.60
2019-03-29T03:21:18.862Z,6.60
2019-03-29T03:23:46.919Z,6.60
2019-03-29T03:26:15.003Z,6.50
2019-03-29T03:28:43.053Z,6.50
2019-03-29T03:31:11.885Z,6.50
2019-03-29T03:33:39.934Z,6.50
2019-03-29T03:36:07.988Z,6.50
2019-03-29T03:38:36.122Z,6.40
2019-03-29T03:41:04.133Z,6.40
2019-03-29T03:43:32.184Z,6.50
2019-03-29T03:46:00.240Z,6.40
2019-03-29T03:48:29.107Z,6.40
2019-03-29T03:50:57.123Z,6.40
2019-03-29T03:53:25.167Z,6.40
2019-03-29T03:55:53.992Z,6.30
2019-03-29T03:58:22.044Z,6.20
2019-03-29T04:00:51.644Z,6.20
2019-03-29T04:03:20.647Z,6.20
2019-03-29T04:05:48.719Z,6.20
2019-03-29T04:08:16.766Z,6.20
2019-03-29T04:10:44.908Z,6.20
2019-03-29T04:13:13.035Z,6.10
2019-03-29T04:15:41.083Z,6.20
2019-03-29T04:18:09.176Z,6.20
2019-03-29T04:20:37.234Z,6.20
2019-03-29T04:23:06.056Z,6.20
2019-03-29T04:25:34.088Z,6.20
2019-03-29T04:28:02.907Z,6.10
2019-03-29T04:30:30.945Z,6.10
2019-03-29T04:32:59.771Z,6.20
2019-03-29T04:35:27.839Z,6.10
2019-03-29T04:37:56.629Z,6.00
2019-03-29T04:40:24.636Z,6.00
2019-03-29T04:42:52.856Z,6.00
2019-03-29T04:45:21.067Z,6.00
2019-03-29T04:47:49.924Z,6.00
2019-03-29T04:50:18.004Z,6.00
2019-03-29T04:52:46.786Z,5.90
2019-03-29T04:55:16.170Z,6.00
2019-03-29T04:57:44.231Z,5.90
2019-03-29T05:00:13.133Z,5.90
2019-03-29T05:02:41.210Z,5.90
2019-03-29T05:05:09.247Z,5.80
2019-03-29T05:07:38.167Z,5.90
2019-03-29T05:10:19.982Z,5.90
2019-03-29T05:12:34.315Z,6.00
2019-03-29T05:15:02.419Z,5.90
2019-03-29T05:17:30.442Z,5.90
2019-03-29T05:19:58.480Z,6.00
2019-03-29T05:22:26.522Z,6.00
2019-03-29T05:24:54.690Z,6.00
2019-03-29T05:27:22.745Z,6.00
2019-03-29T05:29:51.524Z,6.10
2019-03-29T05:32:19.578Z,6.00
2019-03-29T05:34:47.709Z,6.00
2019-03-29T05:37:15.700Z,6.00
2019-03-29T05:39:44.617Z,6.20
2019-03-29T05:42:12.700Z,6.30
2019-03-29T05:44:41.043Z,6.20
2019-03-29T05:47:08.794Z,6.30
2019-03-29T05:49:36.849Z,6.30
2019-03-29T05:52:04.892Z,6.70
2019-03-29T05:54:32.964Z,7.50
2019-03-29T05:57:01.011Z,8.10
2019-03-29T05:59:29.075Z,8.70
2019-03-29T06:01:57.122Z,9.80
2019-03-29T06:04:25.943Z,10.20
2019-03-29T06:06:54.022Z,10.10
2019-03-29T06:09:22.060Z,10.30
2019-03-29T06:11:50.871Z,10.00
2019-03-29T06:14:19.668Z,10.20
2019-03-29T06:16:47.731Z,10.20
2019-03-29T06:19:16.611Z,11.10
2019-03-29T06:21:44.656Z,11.10
2019-03-29T06:24:12.756Z,10.90
2019-03-29T06:26:40.932Z,11.50
2019-03-29T06:29:08.995Z,11.30
2019-03-29T06:31:37.783Z,10.60
2019-03-29T06:34:05.855Z,10.60
2019-03-29T06:36:34.638Z,10.60
2019-03-29T06:39:02.741Z,10.60
2019-03-29T06:41:30.791Z,10.30
2019-03-29T06:43:58.950Z,10.50
2019-03-29T06:46:27.025Z,11.00
2019-03-29T06:48:55.083Z,10.90
2019-03-29T06:51:24.038Z,10.20
2019-03-29T06:53:52.675Z,10.10
2019-03-29T06:56:20.305Z,10.30
2019-03-29T06:58:49.029Z,10.70
2019-03-29T07:01:17.124Z,10.70
2019-03-29T07:03:45.143Z,10.90
2019-03-29T07:06:13.954Z,9.80
2019-03-29T07:08:42.023Z,9.80
2019-03-29T07:11:17.433Z,9.60
2019-03-29T07:13:38.983Z,10.30
2019-03-29T07:16:09.310Z,10.30
2019-03-29T07:18:37.349Z,10.30
2019-03-29T07:21:05.382Z,10.60
2019-03-29T07:23:33.481Z,11.00
2019-03-29T07:26:01.571Z,11.60
2019-03-29T07:28:29.641Z,11.60
2019-03-29T07:30:58.579Z,12.20
2019-03-29T07:33:26.634Z,12.20
2019-03-29T07:35:54.703Z,11.90
2019-03-29T07:38:22.800Z,12.40
2019-03-29T07:40:50.886Z,12.50
2019-03-29T07:43:18.959Z,12.70
2019-03-29T07:45:47.123Z,12.30
2019-03-29T07:48:15.197Z,12.60
2019-03-29T07:50:43.284Z,11.70
2019-03-29T07:53:11.357Z,11.30
2019-03-29T07:55:40.204Z,12.70
2019-03-29T07:58:08.266Z,12.70
2019-03-29T08:00:36.359Z,12.70
2019-03-29T08:03:04.419Z,13.50
2019-03-29T08:05:35.238Z,13.20
2019-03-29T08:08:01.372Z,14.60
2019-03-29T08:10:31.448Z,14.60
2019-03-29T08:12:57.835Z,15.30
2019-03-29T08:15:25.831Z,15.10
2019-03-29T08:17:53.897Z,15.30
2019-03-29T08:20:39.256Z,14.70
2019-03-29T08:22:49.986Z,14.90
2019-03-29T08:25:18.076Z,14.20
2019-03-29T08:27:46.109Z,13.70
2019-03-29T08:30:14.196Z,13.50
2019-03-29T08:32:42.237Z,14.80
2019-03-29T08:35:11.078Z,14.30
2019-03-29T08:37:39.138Z,14.30
2019-03-29T08:40:07.212Z,14.40
2019-03-29T08:42:35.363Z,14.10
2019-03-29T08:45:03.428Z,12.60
2019-03-29T08:47:31.505Z,12.70
2019-03-29T08:49:59.571Z,13.00
2019-03-29T08:52:27.674Z,14.10
2019-03-29T08:54:55.710Z,13.80
2019-03-29T08:57:24.639Z,12.70
2019-03-29T08:59:52.693Z,12.70
2019-03-29T09:02:20.842Z,12.50
2019-03-29T09:04:49.030Z,12.90
2019-03-29T09:07:17.291Z,13.30
2019-03-29T09:09:46.506Z,12.80
2019-03-29T09:12:14.918Z,12.70
2019-03-29T09:14:41.536Z,12.10
2019-03-29T09:17:09.603Z,12.90
2019-03-29T09:19:37.792Z,14.00
2019-03-29T09:22:05.927Z,14.20
2019-03-29T09:24:33.988Z,14.90
2019-03-29T09:27:02.025Z,15.20
2019-03-29T09:29:30.939Z,15.50
2019-03-29T09:31:59.046Z,15.40
2019-03-29T09:34:28.871Z,14.40
2019-03-29T09:36:55.149Z,14.10
2019-03-29T09:39:23.230Z,14.60
2019-03-29T09:41:52.027Z,14.90
2019-03-29T09:44:20.114Z,14.90
2019-03-29T09:46:48.180Z,15.30
2019-03-29T09:49:16.256Z,16.00
2019-03-29T09:51:44.411Z,14.90
2019-03-29T09:54:12.472Z,14.80
2019-03-29T09:56:40.638Z,15.20
2019-03-29T09:59:08.733Z,15.90
2019-03-29T10:01:36.914Z,16.70
2019-03-29T10:04:04.867Z,16.60
2019-03-29T10:06:32.940Z,16.60
2019-03-29T10:09:00.999Z,17.10
2019-03-29T10:11:29.058Z,16.50
2019-03-29T10:13:57.131Z,16.40
2019-03-29T10:16:26.043Z,16.00
2019-03-29T10:18:53.230Z,16.40
2019-03-29T10:21:21.339Z,16.00
2019-03-29T10:23:49.440Z,15.50
2019-03-29T10:26:17.500Z,15.50
2019-03-29T10:28:46.302Z,16.70
2019-03-29T10:31:14.461Z,16.70
2019-03-29T10:33:42.682Z,15.60
2019-03-29T10:36:10.898Z,15.10
2019-03-29T10:38:39.683Z,16.00
2019-03-29T10:41:08.008Z,16.00
2019-03-29T10:43:36.110Z,15.90
2019-03-29T10:46:04.916Z,16.10
2019-03-29T10:48:32.992Z,16.10
2019-03-29T10:51:01.875Z,17.50
2019-03-29T10:53:29.930Z,17.50
2019-03-29T10:55:58.846Z,18.20
2019-03-29T10:58:27.629Z,18.00
2019-03-29T11:00:55.677Z,18.00
2019-03-29T11:03:24.592Z,17.70
2019-03-29T11:05:52.656Z,17.70
2019-03-29T11:08:20.724Z,17.50
2019-03-29T11:10:48.762Z,17.70
2019-03-29T11:13:17.604Z,17.60
2019-03-29T11:15:45.657Z,17.60
2019-03-29T11:18:13.719Z,17.40
2019-03-29T11:20:41.783Z,17.80
2019-03-29T11:23:09.863Z,18.20
2019-03-29T11:25:38.638Z,18.40
2019-03-29T11:28:07.447Z,17.90
2019-03-29T11:30:42.171Z,17.90
2019-03-29T11:33:03.584Z,17.70
2019-03-29T11:35:31.645Z,18.20
2019-03-29T11:38:00.699Z,18.60
2019-03-29T11:40:28.926Z,18.50
2019-03-29T11:42:56.964Z,18.60
2019-03-29T11:45:25.775Z,18.50
2019-03-29T11:48:07.230Z,18.60
2019-03-29T11:50:22.726Z,18.60
2019-03-29T11:52:51.618Z,18.90
2019-03-29T11:55:19.664Z,18.90
2019-03-29T11:57:47.732Z,18.90
2019-03-29T12:00:15.763Z,19.00
2019-03-29T12:02:43.790Z,18.90
2019-03-29T12:05:12.592Z,19.20
2019-03-29T12:07:40.637Z,19.20
2019-03-29T12:10:08.663Z,19.40
2019-03-29T12:12:36.711Z,19.10
2019-03-29T12:15:05.647Z,18.90
2019-03-29T12:17:33.758Z,18.70
2019-03-29T12:20:01.825Z,19.00
2019-03-29T12:22:30.845Z,19.30
2019-03-29T12:24:58.978Z,19.30
2019-03-29T12:27:27.778Z,18.50
2019-03-29T12:29:55.860Z,18.50
2019-03-29T12:32:23.936Z,19.00
2019-03-29T12:34:52.002Z,19.10
2019-03-29T12:37:20.084Z,19.10
2019-03-29T12:39:48.136Z,19.00
2019-03-29T12:42:16.215Z,19.30
2019-03-29T12:44:44.259Z,19.30
2019-03-29T12:47:13.786Z,19.00
2019-03-29T12:49:41.860Z,19.00
2019-03-29T12:52:09.903Z,18.80
2019-03-29T12:54:38.819Z,18.90
2019-03-29T12:57:07.211Z,18.90
2019-03-29T12:59:35.044Z,18.90
2019-03-29T13:02:03.033Z,19.00
2019-03-29T13:04:31.110Z,19.40
2019-03-29T13:06:59.165Z,19.20
2019-03-29T13:09:27.307Z,18.90
2019-03-29T13:11:55.426Z,18.30
2019-03-29T13:14:23.493Z,18.10
2019-03-29T13:16:51.645Z,18.50
2019-03-29T13:19:20.459Z,18.70
2019-03-29T13:21:48.803Z,18.70
2019-03-29T13:24:17.606Z,18.80
2019-03-29T13:26:45.693Z,18.80
2019-03-29T13:29:13.939Z,18.30
2019-03-29T13:31:42.764Z,18.60
2019-03-29T13:34:11.009Z,18.60
2019-03-29T13:36:39.041Z,18.60
2019-03-29T13:39:07.159Z,18.30
2019-03-29T13:41:35.279Z,17.70
2019-03-29T13:44:03.342Z,17.70
2019-03-29T13:46:31.681Z,17.80
2019-03-29T13:48:59.726Z,18.00
2019-03-29T13:51:28.675Z,17.50
2019-03-29T13:53:56.795Z,17.50
2019-03-29T13:56:25.054Z,18.10
2019-03-29T13:58:53.112Z,18.30
2019-03-29T14:01:21.168Z,18.00
2019-03-29T14:03:49.227Z,18.10
2019-03-29T14:06:17.331Z,17.90
2019-03-29T14:08:46.172Z,17.80
2019-03-29T14:11:14.411Z,17.80
2019-03-29T14:13:43.231Z,17.40
2019-03-29T14:16:11.494Z,17.40
2019-03-29T14:18:40.398Z,17.10
2019-03-29T14:21:08.445Z,17.10
2019-03-29T14:23:37.249Z,17.50
2019-03-29T14:26:05.316Z,17.40
2019-03-29T14:28:33.362Z,17.60
2019-03-29T14:31:02.186Z,17.60
2019-03-29T14:36:30.063Z,17.50
2019-03-29T14:38:58.149Z,17.50
2019-03-29T14:41:26.303Z,17.50
2019-03-29T14:43:54.423Z,17.70
2019-03-29T14:46:22.541Z,17.50
2019-03-29T14:48:50.596Z,17.30
2019-03-29T14:51:19.534Z,17.40
2019-03-29T14:53:47.684Z,17.40
2019-03-29T14:56:15.744Z,17.20
2019-03-29T14:58:43.827Z,17.20
2019-03-29T15:01:11.895Z,17.00
2019-03-29T15:03:39.948Z,17.00
2019-03-29T15:06:09.027Z,16.90
2019-03-29T15:08:37.859Z,16.40
2019-03-29T15:11:05.924Z,16.40
2019-03-29T15:13:34.013Z,16.40
2019-03-29T15:16:02.077Z,16.50
2019-03-29T15:18:30.245Z,16.50
2019-03-29T15:20:58.405Z,16.50
2019-03-29T15:23:26.491Z,16.30
2019-03-29T15:25:54.554Z,16.30
2019-03-29T15:28:23.508Z,16.80
2019-03-29T15:30:52.635Z,16.60
2019-03-29T15:33:20.507Z,16.50
2019-03-29T15:35:48.561Z,16.30
2019-03-29T15:38:16.621Z,16.10
2019-03-29T15:40:44.715Z,15.90
2019-03-29T15:43:12.824Z,16.00
2019-03-29T15:45:40.847Z,16.10
2019-03-29T15:48:09.046Z,16.10
2019-03-29T15:50:36.995Z,15.90
2019-03-29T15:53:05.171Z,15.70
2019-03-29T15:55:33.219Z,15.60
2019-03-29T15:58:01.291Z,15.60
2019-03-29T16:00:29.376Z,15.40
2019-03-29T16:02:57.620Z,15.50
2019-03-29T16:05:26.460Z,15.60
2019-03-29T16:07:54.487Z,15.60
2019-03-29T16:10:22.534Z,15.50
2019-03-29T16:12:50.567Z,15.70
2019-03-29T16:15:18.717Z,15.70
2019-03-29T16:17:47.512Z,15.50
2019-03-29T16:20:15.695Z,15.40
2019-03-29T16:22:43.761Z,15.60
2019-03-29T16:25:11.899Z,15.40
2019-03-29T16:27:40.864Z,15.20
2019-03-29T16:30:09.045Z,15.10
2019-03-29T16:32:37.128Z,15.10
2019-03-29T16:35:05.884Z,15.00
2019-03-29T16:37:34.356Z,15.10
2019-03-29T16:40:02.385Z,15.00
2019-03-29T16:42:30.448Z,14.70
2019-03-29T16:44:58.525Z,14.70
2019-03-29T16:47:26.605Z,14.70
2019-03-29T16:49:54.695Z,14.80
2019-03-29T16:52:22.742Z,14.80
2019-03-29T16:54:50.823Z,14.70
2019-03-29T16:57:19.713Z,14.40
2019-03-29T16:59:47.792Z,14.40
2019-03-29T17:02:15.948Z,14.40
2019-03-29T17:04:43.999Z,14.30
2019-03-29T17:07:12.828Z,14.20
2019-03-29T17:09:40.893Z,14.20
2019-03-29T17:12:08.964Z,14.10
2019-03-29T17:14:37.013Z,14.10
2019-03-29T17:17:05.070Z,14.20
2019-03-29T17:19:33.900Z,14.10
2019-03-29T17:22:01.952Z,14.10
2019-03-29T17:24:30.754Z,14.00
2019-03-29T17:26:58.812Z,13.90
2019-03-29T17:29:26.875Z,13.90
2019-03-29T17:31:54.930Z,13.90
2019-03-29T17:34:23.020Z,13.80
2019-03-29T17:36:51.088Z,13.70
2019-03-29T17:39:22.026Z,13.70
2019-03-29T17:41:47.218Z,13.60
2019-03-29T17:44:15.434Z,13.50
2019-03-29T17:46:43.492Z,13.40
2019-03-29T17:49:11.524Z,13.40
2019-03-29T17:51:39.579Z,13.40
2019-03-29T17:54:07.694Z,13.20
2019-03-29T17:56:35.782Z,13.20
2019-03-29T17:59:03.839Z,13.20
2019-03-29T18:01:31.983Z,13.10
2019-03-29T18:04:00.084Z,13.00
2019-03-29T18:06:28.136Z,13.60
2019-03-29T18:08:56.198Z,13.30
2019-03-29T18:11:24.281Z,13.30
2019-03-29T18:13:52.352Z,13.10
2019-03-29T18:16:30.539Z,12.80
2019-03-29T18:18:50.240Z,12.60
2019-03-29T18:21:18.287Z,12.60
2019-03-29T18:23:46.383Z,12.50
2019-03-29T18:26:14.455Z,12.30
2019-03-29T18:28:42.511Z,12.30
2019-03-29T18:31:11.297Z,12.30
2019-03-29T18:33:39.374Z,12.30
2019-03-29T18:36:07.427Z,12.30
2019-03-29T18:38:35.488Z,12.10
2019-03-29T18:41:03.514Z,12.00
2019-03-29T18:43:31.581Z,12.00
2019-03-29T18:45:59.640Z,11.90
2019-03-29T18:48:27.714Z,11.80
2019-03-29T18:50:55.805Z,11.80
2019-03-29T18:53:23.855Z,11.80
2019-03-29T18:55:51.911Z,11.70
2019-03-29T18:58:20.706Z,11.80
2019-03-29T19:00:48.787Z,11.90
2019-03-29T19:03:16.833Z,11.80
2019-03-29T19:05:44.904Z,11.80
2019-03-29T19:08:13.694Z,11.60
2019-03-29T19:10:41.747Z,11.60
2019-03-29T19:13:09.799Z,11.60
2019-03-29T19:15:38.724Z,11.50
2019-03-29T19:18:07.612Z,11.40
2019-03-29T19:20:35.687Z,11.40
2019-03-29T19:23:04.476Z,11.20
2019-03-29T19:25:33.035Z,11.20
2019-03-29T19:28:01.102Z,11.10
2019-03-29T19:30:29.919Z,11.10
2019-03-29T19:32:57.980Z,11.10
2019-03-29T19:35:26.081Z,11.00
2019-03-29T19:37:54.234Z,10.90
2019-03-29T19:40:22.304Z,10.80
2019-03-29T19:42:50.355Z,10.70
2019-03-29T19:45:18.443Z,10.60
2019-03-29T19:47:46.493Z,10.60
2019-03-29T19:50:14.576Z,10.60
2019-03-29T19:52:42.635Z,10.50
2019-03-29T19:55:10.727Z,10.40
2019-03-29T19:57:39.623Z,10.40
2019-03-29T20:00:07.678Z,10.50
2019-03-29T20:02:35.764Z,10.40
2019-03-29T20:05:03.767Z,10.50
2019-03-29T20:07:33.320Z,10.40
2019-03-29T20:10:01.385Z,10.40
2019-03-29T20:12:29.450Z,10.30
2019-03-29T20:14:58.274Z,10.20
2019-03-29T20:17:27.749Z,10.20
2019-03-29T20:19:55.215Z,9.90
2019-03-29T20:22:23.281Z,9.90
2019-03-29T20:24:52.071Z,9.90
2019-03-29T20:27:20.123Z,9.80
2019-03-29T20:29:48.224Z,10.00
2019-03-29T20:32:16.283Z,10.10
2019-03-29T20:34:44.452Z,9.90
2019-03-29T20:37:13.236Z,9.60
2019-03-29T20:39:41.284Z,9.50
2019-03-29T20:42:09.315Z,9.70
2019-03-29T20:44:37.377Z,9.60
2019-03-29T20:47:05.531Z,9.60
2019-03-29T20:49:34.417Z,9.60
2019-03-29T20:52:02.471Z,9.60
2019-03-29T20:54:30.528Z,9.70
2019-03-29T20:57:01.243Z,9.50
2019-03-29T20:59:29.789Z,9.50
2019-03-29T21:01:58.039Z,9.50
2019-03-29T21:04:26.842Z,9.10
2019-03-29T21:06:54.894Z,9.10
2019-03-29T21:09:22.967Z,9.10
2019-03-29T21:11:51.043Z,9.40
2019-03-29T21:14:19.084Z,9.20
2019-03-29T21:16:47.997Z,9.10
2019-03-29T21:19:16.043Z,9.00
2019-03-29T21:21:44.972Z,9.00
2019-03-29T21:24:13.012Z,9.00
2019-03-29T21:26:41.924Z,8.80
2019-03-29T21:29:10.703Z,8.90
2019-03-29T21:31:38.759Z,8.80
2019-03-29T21:34:06.849Z,9.00
2019-03-29T21:36:34.905Z,8.90
2019-03-29T21:39:02.947Z,8.80
2019-03-29T21:41:31.884Z,8.60
2019-03-29T21:43:59.931Z,8.50
2019-03-29T21:46:28.769Z,8.60
2019-03-29T21:48:56.804Z,8.60
2019-03-29T21:51:24.857Z,8.70
2019-03-29T21:53:53.665Z,8.50
2019-03-29T21:56:21.731Z,8.40
2019-03-29T21:58:49.797Z,8.30
2019-03-29T22:01:17.820Z,8.60
2019-03-29T22:03:45.865Z,8.50
2019-03-29T22:06:13.927Z,8.40
2019-03-29T22:08:41.951Z,8.40
2019-03-29T22:11:10.059Z,8.40
2019-03-29T22:13:38.112Z,8.30
2019-03-29T22:16:06.188Z,8.10
2019-03-29T22:18:38.025Z,8.20
2019-03-29T22:21:03.069Z,8.20
2019-03-29T22:23:31.952Z,8.30
2019-03-29T22:26:00.043Z,8.30
2019-03-29T22:28:28.100Z,8.10
2019-03-29T22:30:56.144Z,8.10
2019-03-29T22:33:24.220Z,8.00
2019-03-29T22:35:53.015Z,8.20
2019-03-29T22:38:21.071Z,8.10
2019-03-29T22:40:49.132Z,8.20
2019-03-29T22:43:18.127Z,7.80
2019-03-29T22:45:46.120Z,7.70
2019-03-29T22:48:14.204Z,7.60
2019-03-29T22:50:42.268Z,7.60
2019-03-29T22:53:10.328Z,7.70
2019-03-29T22:55:38.396Z,7.60
2019-03-29T22:58:06.462Z,7.60
2019-03-29T23:00:36.130Z,7.70
2019-03-29T23:03:04.183Z,7.60
2019-03-29T23:05:32.242Z,7.40
2019-03-29T23:08:00.272Z,7.40
2019-03-29T23:10:28.325Z,7.50
2019-03-29T23:12:57.147Z,7.50
2019-03-29T23:15:25.197Z,7.50
2019-03-29T23:17:54.027Z,7.10
2019-03-29T23:20:22.071Z,7.10
2019-03-29T23:22:50.123Z,6.90
2019-03-29T23:25:18.947Z,6.80
2019-03-29T23:27:47.192Z,6.80
2019-03-29T23:30:15.792Z,7.10
2019-03-29T23:32:43.891Z,7.10
2019-03-29T23:35:11.911Z,7.40
2019-03-29T23:37:39.972Z,7.20
2019-03-29T23:40:08.902Z,6.80
2019-03-29T23:42:37.779Z,6.80
2019-03-29T23:45:05.829Z,6.80
2019-03-29T23:47:34.651Z,6.60
2019-03-29T23:50:02.699Z,6.60
2019-03-29T23:52:30.775Z,6.50
2019-03-29T23:54:58.836Z,6.50
2019-03-29T23:57:26.891Z,6.30
2019-03-29T23:59:55.703Z,6.20
